sensor_id;sensor_type;location;lat;lon;timestamp;P1;durP1;ratioP1;P2;durP2;ratioP2
67640;SDS011;54434;50.096;20.082;2023-05-14T00:01:09;17.90;;;9.10;;
67640;SDS011;54434;50.096;20.082;2023-05-14T00:03:46;16.70;;;9.20;;
67640;SDS011;54434;50.096;20.082;2023-05-14T00:06:22;16.80;;;8.90;;
67640;SDS011;54434;50.096;20.082;2023-05-14T00:08:59;15.10;;;9.40;;
67640;SDS011;54434;50.096;20.082;2023-05-14T00:11:36;14.60;;;8.80;;
67640;SDS011;54434;50.096;20.082;2023-05-14T00:14:12;19.40;;;10.20;;
67640;SDS011;54434;50.096;20.082;2023-05-14T00:16:49;15.40;;;10.00;;
67640;SDS011;54434;50.096;20.082;2023-05-14T00:19:25;16.40;;;9.30;;
67640;SDS011;54434;50.096;20.082;2023-05-14T00:22:02;18.60;;;9.90;;
67640;SDS011;54434;50.096;20.082;2023-05-14T00:24:39;15.30;;;9.60;;
67640;SDS011;54434;50.096;20.082;2023-05-14T00:27:15;14.60;;;9.70;;
67640;SDS011;54434;50.096;20.082;2023-05-14T00:29:51;20.10;;;10.30;;
67640;SDS011;54434;50.096;20.082;2023-05-14T00:32:28;16.80;;;9.70;;
67640;SDS011;54434;50.096;20.082;2023-05-14T00:35:06;15.90;;;9.60;;
67640;SDS011;54434;50.096;20.082;2023-05-14T00:37:43;17.80;;;10.20;;
67640;SDS011;54434;50.096;20.082;2023-05-14T00:40:20;16.80;;;10.10;;
67640;SDS011;54434;50.096;20.082;2023-05-14T00:42:58;15.60;;;10.00;;
67640;SDS011;54434;50.096;20.082;2023-05-14T00:45:35;16.10;;;10.00;;
67640;SDS011;54434;50.096;20.082;2023-05-14T00:48:12;16.90;;;9.70;;
67640;SDS011;54434;50.096;20.082;2023-05-14T00:50:49;16.20;;;9.80;;
67640;SDS011;54434;50.096;20.082;2023-05-14T00:53:27;16.30;;;9.30;;
67640;SDS011;54434;50.096;20.082;2023-05-14T00:56:04;17.10;;;9.40;;
67640;SDS011;54434;50.096;20.082;2023-05-14T00:58:42;15.60;;;9.10;;
67640;SDS011;54434;50.096;20.082;2023-05-14T01:01:18;15.40;;;8.70;;
67640;SDS011;54434;50.096;20.082;2023-05-14T01:03:55;17.50;;;9.40;;
67640;SDS011;54434;50.096;20.082;2023-05-14T01:06:42;20.50;;;9.80;;
67640;SDS011;54434;50.096;20.082;2023-05-14T01:09:31;17.70;;;9.60;;
67640;SDS011;54434;50.096;20.082;2023-05-14T01:12:23;17.60;;;9.40;;
67640;SDS011;54434;50.096;20.082;2023-05-14T01:15:10;13.80;;;8.80;;
67640;SDS011;54434;50.096;20.082;2023-05-14T01:17:55;14.20;;;8.70;;
67640;SDS011;54434;50.096;20.082;2023-05-14T01:20:35;16.60;;;9.00;;
67640;SDS011;54434;50.096;20.082;2023-05-14T01:23:13;16.10;;;9.20;;
67640;SDS011;54434;50.096;20.082;2023-05-14T01:25:50;14.30;;;9.10;;
67640;SDS011;54434;50.096;20.082;2023-05-14T01:28:32;14.60;;;9.30;;
67640;SDS011;54434;50.096;20.082;2023-05-14T01:31:14;15.30;;;9.00;;
67640;SDS011;54434;50.096;20.082;2023-05-14T01:33:59;13.50;;;8.70;;
67640;SDS011;54434;50.096;20.082;2023-05-14T01:36:37;14.70;;;8.40;;
67640;SDS011;54434;50.096;20.082;2023-05-14T01:39:15;14.90;;;8.80;;
67640;SDS011;54434;50.096;20.082;2023-05-14T01:41:52;14.20;;;9.20;;
67640;SDS011;54434;50.096;20.082;2023-05-14T01:44:30;17.90;;;8.70;;
67640;SDS011;54434;50.096;20.082;2023-05-14T01:47:07;15.70;;;9.30;;
67640;SDS011;54434;50.096;20.082;2023-05-14T01:49:43;13.00;;;8.30;;
67640;SDS011;54434;50.096;20.082;2023-05-14T01:52:19;16.10;;;9.40;;
67640;SDS011;54434;50.096;20.082;2023-05-14T01:54:56;18.40;;;9.30;;
67640;SDS011;54434;50.096;20.082;2023-05-14T01:57:32;14.50;;;8.90;;
67640;SDS011;54434;50.096;20.082;2023-05-14T02:00:11;15.30;;;8.60;;
67640;SDS011;54434;50.096;20.082;2023-05-14T02:02:48;16.10;;;8.90;;
67640;SDS011;54434;50.096;20.082;2023-05-14T02:05:24;17.00;;;8.60;;
67640;SDS011;54434;50.096;20.082;2023-05-14T02:08:01;15.70;;;8.70;;
67640;SDS011;54434;50.096;20.082;2023-05-14T02:10:38;12.80;;;8.70;;
67640;SDS011;54434;50.096;20.082;2023-05-14T02:13:15;14.90;;;9.00;;
67640;SDS011;54434;50.096;20.082;2023-05-14T02:15:51;15.20;;;9.30;;
67640;SDS011;54434;50.096;20.082;2023-05-14T02:18:28;14.00;;;9.00;;
67640;SDS011;54434;50.096;20.082;2023-05-14T02:21:04;17.30;;;8.70;;
67640;SDS011;54434;50.096;20.082;2023-05-14T02:23:41;14.30;;;8.40;;
67640;SDS011;54434;50.096;20.082;2023-05-14T02:26:17;12.60;;;8.70;;
67640;SDS011;54434;50.096;20.082;2023-05-14T02:28:53;16.70;;;8.40;;
67640;SDS011;54434;50.096;20.082;2023-05-14T02:31:30;13.80;;;8.90;;
67640;SDS011;54434;50.096;20.082;2023-05-14T02:34:07;14.40;;;8.50;;
67640;SDS011;54434;50.096;20.082;2023-05-14T02:36:43;14.30;;;8.90;;
67640;SDS011;54434;50.096;20.082;2023-05-14T02:39:20;16.60;;;8.50;;
67640;SDS011;54434;50.096;20.082;2023-05-14T02:41:56;13.70;;;8.30;;
67640;SDS011;54434;50.096;20.082;2023-05-14T02:44:33;14.40;;;9.10;;
67640;SDS011;54434;50.096;20.082;2023-05-14T02:47:09;14.20;;;8.70;;
67640;SDS011;54434;50.096;20.082;2023-05-14T02:49:46;14.50;;;9.00;;
67640;SDS011;54434;50.096;20.082;2023-05-14T02:52:22;13.40;;;8.30;;
67640;SDS011;54434;50.096;20.082;2023-05-14T02:54:58;14.80;;;9.20;;
67640;SDS011;54434;50.096;20.082;2023-05-14T02:57:37;16.20;;;8.70;;
67640;SDS011;54434;50.096;20.082;2023-05-14T03:00:15;15.30;;;8.40;;
67640;SDS011;54434;50.096;20.082;2023-05-14T03:02:52;13.10;;;8.60;;
67640;SDS011;54434;50.096;20.082;2023-05-14T03:05:29;13.10;;;8.40;;
67640;SDS011;54434;50.096;20.082;2023-05-14T03:08:05;13.70;;;8.60;;
67640;SDS011;54434;50.096;20.082;2023-05-14T03:10:42;14.20;;;8.20;;
67640;SDS011;54434;50.096;20.082;2023-05-14T03:13:19;13.70;;;8.40;;
67640;SDS011;54434;50.096;20.082;2023-05-14T03:15:55;13.30;;;7.60;;
67640;SDS011;54434;50.096;20.082;2023-05-14T03:18:32;14.60;;;8.50;;
67640;SDS011;54434;50.096;20.082;2023-05-14T03:21:09;12.40;;;8.50;;
67640;SDS011;54434;50.096;20.082;2023-05-14T03:23:46;14.00;;;8.50;;
67640;SDS011;54434;50.096;20.082;2023-05-14T03:26:24;14.20;;;8.20;;
67640;SDS011;54434;50.096;20.082;2023-05-14T03:29:00;14.00;;;8.20;;
67640;SDS011;54434;50.096;20.082;2023-05-14T03:31:37;14.30;;;8.30;;
67640;SDS011;54434;50.096;20.082;2023-05-14T03:34:13;12.50;;;7.50;;
67640;SDS011;54434;50.096;20.082;2023-05-14T03:36:50;13.60;;;8.40;;
67640;SDS011;54434;50.096;20.082;2023-05-14T03:39:27;11.80;;;7.60;;
67640;SDS011;54434;50.096;20.082;2023-05-14T03:42:04;12.50;;;7.80;;
67640;SDS011;54434;50.096;20.082;2023-05-14T03:44:40;13.40;;;7.50;;
67640;SDS011;54434;50.096;20.082;2023-05-14T03:47:17;11.70;;;7.10;;
67640;SDS011;54434;50.096;20.082;2023-05-14T03:49:53;16.90;;;7.60;;
67640;SDS011;54434;50.096;20.082;2023-05-14T03:52:30;12.50;;;6.80;;
67640;SDS011;54434;50.096;20.082;2023-05-14T03:55:10;12.20;;;6.60;;
67640;SDS011;54434;50.096;20.082;2023-05-14T03:57:48;14.00;;;7.00;;
67640;SDS011;54434;50.096;20.082;2023-05-14T04:00:25;11.30;;;6.40;;
67640;SDS011;54434;50.096;20.082;2023-05-14T04:03:02;9.40;;;6.30;;
67640;SDS011;54434;50.096;20.082;2023-05-14T04:05:38;10.00;;;6.40;;
67640;SDS011;54434;50.096;20.082;2023-05-14T04:08:14;10.30;;;5.90;;
67640;SDS011;54434;50.096;20.082;2023-05-14T04:10:51;9.50;;;6.00;;
67640;SDS011;54434;50.096;20.082;2023-05-14T04:13:28;12.60;;;6.40;;
67640;SDS011;54434;50.096;20.082;2023-05-14T04:16:05;9.70;;;6.10;;
67640;SDS011;54434;50.096;20.082;2023-05-14T04:18:42;9.00;;;6.00;;
67640;SDS011;54434;50.096;20.082;2023-05-14T04:21:18;9.90;;;5.90;;
67640;SDS011;54434;50.096;20.082;2023-05-14T04:23:55;9.50;;;5.60;;
67640;SDS011;54434;50.096;20.082;2023-05-14T04:26:32;9.10;;;5.70;;
67640;SDS011;54434;50.096;20.082;2023-05-14T04:29:09;9.60;;;5.90;;
67640;SDS011;54434;50.096;20.082;2023-05-14T04:31:46;8.70;;;5.60;;
67640;SDS011;54434;50.096;20.082;2023-05-14T04:34:22;8.90;;;5.60;;
67640;SDS011;54434;50.096;20.082;2023-05-14T04:36:58;12.10;;;5.60;;
67640;SDS011;54434;50.096;20.082;2023-05-14T04:39:36;9.10;;;5.30;;
67640;SDS011;54434;50.096;20.082;2023-05-14T04:42:12;10.40;;;5.60;;
67640;SDS011;54434;50.096;20.082;2023-05-14T04:44:49;8.00;;;5.20;;
67640;SDS011;54434;50.096;20.082;2023-05-14T04:47:25;9.80;;;5.60;;
67640;SDS011;54434;50.096;20.082;2023-05-14T04:50:02;8.50;;;5.40;;
67640;SDS011;54434;50.096;20.082;2023-05-14T04:52:41;8.20;;;5.10;;
67640;SDS011;54434;50.096;20.082;2023-05-14T04:55:18;9.80;;;5.30;;
67640;SDS011;54434;50.096;20.082;2023-05-14T04:57:55;9.80;;;5.70;;
67640;SDS011;54434;50.096;20.082;2023-05-14T05:00:33;8.00;;;5.40;;
67640;SDS011;54434;50.096;20.082;2023-05-14T05:03:09;8.20;;;5.10;;
67640;SDS011;54434;50.096;20.082;2023-05-14T05:05:46;8.60;;;5.50;;
67640;SDS011;54434;50.096;20.082;2023-05-14T05:08:23;7.20;;;4.70;;
67640;SDS011;54434;50.096;20.082;2023-05-14T05:11:00;8.00;;;5.00;;
67640;SDS011;54434;50.096;20.082;2023-05-14T05:13:36;9.80;;;5.30;;
67640;SDS011;54434;50.096;20.082;2023-05-14T05:16:13;8.20;;;5.30;;
67640;SDS011;54434;50.096;20.082;2023-05-14T05:18:50;9.20;;;5.00;;
67640;SDS011;54434;50.096;20.082;2023-05-14T05:21:26;9.30;;;4.70;;
67640;SDS011;54434;50.096;20.082;2023-05-14T05:24:03;7.50;;;4.30;;
67640;SDS011;54434;50.096;20.082;2023-05-14T05:26:40;8.90;;;4.70;;
67640;SDS011;54434;50.096;20.082;2023-05-14T05:29:17;6.90;;;4.20;;
67640;SDS011;54434;50.096;20.082;2023-05-14T05:31:53;8.20;;;4.70;;
67640;SDS011;54434;50.096;20.082;2023-05-14T05:34:29;7.70;;;4.70;;
67640;SDS011;54434;50.096;20.082;2023-05-14T05:37:06;6.80;;;4.30;;
67640;SDS011;54434;50.096;20.082;2023-05-14T05:39:45;8.30;;;4.60;;
67640;SDS011;54434;50.096;20.082;2023-05-14T05:42:21;8.50;;;4.40;;
67640;SDS011;54434;50.096;20.082;2023-05-14T05:44:58;7.30;;;4.20;;
67640;SDS011;54434;50.096;20.082;2023-05-14T05:47:35;7.30;;;4.40;;
67640;SDS011;54434;50.096;20.082;2023-05-14T05:50:12;8.10;;;4.30;;
67640;SDS011;54434;50.096;20.082;2023-05-14T05:52:52;7.30;;;4.20;;
67640;SDS011;54434;50.096;20.082;2023-05-14T05:55:29;7.20;;;4.20;;
67640;SDS011;54434;50.096;20.082;2023-05-14T05:58:05;8.20;;;4.50;;
67640;SDS011;54434;50.096;20.082;2023-05-14T06:00:41;5.50;;;4.10;;
67640;SDS011;54434;50.096;20.082;2023-05-14T06:03:18;6.80;;;4.10;;
67640;SDS011;54434;50.096;20.082;2023-05-14T06:05:55;6.50;;;4.30;;
67640;SDS011;54434;50.096;20.082;2023-05-14T06:08:31;7.10;;;4.20;;
67640;SDS011;54434;50.096;20.082;2023-05-14T06:11:08;8.00;;;4.30;;
67640;SDS011;54434;50.096;20.082;2023-05-14T06:13:45;6.70;;;3.70;;
67640;SDS011;54434;50.096;20.082;2023-05-14T06:16:21;7.70;;;4.00;;
67640;SDS011;54434;50.096;20.082;2023-05-14T06:18:58;6.90;;;4.10;;
67640;SDS011;54434;50.096;20.082;2023-05-14T06:21:34;5.30;;;3.60;;
67640;SDS011;54434;50.096;20.082;2023-05-14T06:24:11;6.20;;;3.80;;
67640;SDS011;54434;50.096;20.082;2023-05-14T06:26:48;6.20;;;3.60;;
67640;SDS011;54434;50.096;20.082;2023-05-14T06:29:25;6.10;;;4.00;;
67640;SDS011;54434;50.096;20.082;2023-05-14T06:32:05;6.10;;;3.80;;
67640;SDS011;54434;50.096;20.082;2023-05-14T06:34:43;7.20;;;3.80;;
67640;SDS011;54434;50.096;20.082;2023-05-14T06:37:19;5.90;;;3.70;;
67640;SDS011;54434;50.096;20.082;2023-05-14T06:39:56;7.00;;;4.10;;
67640;SDS011;54434;50.096;20.082;2023-05-14T06:42:32;5.80;;;3.50;;
67640;SDS011;54434;50.096;20.082;2023-05-14T06:45:11;7.70;;;3.90;;
67640;SDS011;54434;50.096;20.082;2023-05-14T06:47:47;6.90;;;4.00;;
67640;SDS011;54434;50.096;20.082;2023-05-14T06:50:24;6.10;;;4.10;;
67640;SDS011;54434;50.096;20.082;2023-05-14T06:53:00;5.80;;;3.70;;
67640;SDS011;54434;50.096;20.082;2023-05-14T06:55:37;5.20;;;3.30;;
67640;SDS011;54434;50.096;20.082;2023-05-14T06:58:13;5.80;;;3.50;;
67640;SDS011;54434;50.096;20.082;2023-05-14T07:00:49;5.70;;;3.50;;
67640;SDS011;54434;50.096;20.082;2023-05-14T07:03:26;6.60;;;3.80;;
67640;SDS011;54434;50.096;20.082;2023-05-14T07:06:02;7.30;;;3.70;;
67640;SDS011;54434;50.096;20.082;2023-05-14T07:08:40;5.20;;;3.50;;
67640;SDS011;54434;50.096;20.082;2023-05-14T07:11:18;6.30;;;3.50;;
67640;SDS011;54434;50.096;20.082;2023-05-14T07:13:55;5.70;;;3.80;;
67640;SDS011;54434;50.096;20.082;2023-05-14T07:16:31;6.10;;;3.40;;
67640;SDS011;54434;50.096;20.082;2023-05-14T07:19:08;6.30;;;3.60;;
67640;SDS011;54434;50.096;20.082;2023-05-14T07:21:45;7.00;;;3.60;;
67640;SDS011;54434;50.096;20.082;2023-05-14T07:24:21;5.80;;;3.40;;
67640;SDS011;54434;50.096;20.082;2023-05-14T07:26:58;5.00;;;3.40;;
67640;SDS011;54434;50.096;20.082;2023-05-14T07:29:35;6.70;;;3.50;;
67640;SDS011;54434;50.096;20.082;2023-05-14T07:32:11;5.90;;;3.80;;
67640;SDS011;54434;50.096;20.082;2023-05-14T07:34:48;6.10;;;3.20;;
67640;SDS011;54434;50.096;20.082;2023-05-14T07:37:24;7.90;;;3.40;;
67640;SDS011;54434;50.096;20.082;2023-05-14T07:40:01;5.10;;;3.40;;
67640;SDS011;54434;50.096;20.082;2023-05-14T07:42:39;5.90;;;3.60;;
67640;SDS011;54434;50.096;20.082;2023-05-14T07:45:16;5.80;;;3.30;;
67640;SDS011;54434;50.096;20.082;2023-05-14T07:47:52;5.80;;;3.30;;
67640;SDS011;54434;50.096;20.082;2023-05-14T07:50:28;5.10;;;3.20;;
67640;SDS011;54434;50.096;20.082;2023-05-14T07:53:05;5.80;;;3.30;;
67640;SDS011;54434;50.096;20.082;2023-05-14T07:55:41;5.70;;;3.40;;
67640;SDS011;54434;50.096;20.082;2023-05-14T07:58:20;6.30;;;3.10;;
67640;SDS011;54434;50.096;20.082;2023-05-14T08:00:57;5.50;;;3.10;;
67640;SDS011;54434;50.096;20.082;2023-05-14T08:03:36;6.10;;;3.00;;
67640;SDS011;54434;50.096;20.082;2023-05-14T08:06:12;5.10;;;3.30;;
67640;SDS011;54434;50.096;20.082;2023-05-14T08:08:48;5.40;;;3.20;;
67640;SDS011;54434;50.096;20.082;2023-05-14T08:11:25;7.10;;;3.00;;
67640;SDS011;54434;50.096;20.082;2023-05-14T08:14:01;7.70;;;3.10;;
67640;SDS011;54434;50.096;20.082;2023-05-14T08:16:38;4.70;;;3.00;;
67640;SDS011;54434;50.096;20.082;2023-05-14T08:19:15;6.30;;;3.20;;
67640;SDS011;54434;50.096;20.082;2023-05-14T08:21:52;6.50;;;3.20;;
67640;SDS011;54434;50.096;20.082;2023-05-14T08:24:28;7.40;;;2.90;;
67640;SDS011;54434;50.096;20.082;2023-05-14T08:27:05;7.60;;;3.00;;
67640;SDS011;54434;50.096;20.082;2023-05-14T08:29:50;4.40;;;2.70;;
67640;SDS011;54434;50.096;20.082;2023-05-14T08:32:29;4.70;;;2.90;;
67640;SDS011;54434;50.096;20.082;2023-05-14T08:35:10;10.90;;;8.00;;
67640;SDS011;54434;50.096;20.082;2023-05-14T08:37:47;6.00;;;2.90;;
67640;SDS011;54434;50.096;20.082;2023-05-14T08:40:24;5.10;;;2.90;;
67640;SDS011;54434;50.096;20.082;2023-05-14T08:43:02;4.10;;;2.90;;
67640;SDS011;54434;50.096;20.082;2023-05-14T08:45:40;3.80;;;2.50;;
67640;SDS011;54434;50.096;20.082;2023-05-14T08:48:18;7.30;;;2.90;;
67640;SDS011;54434;50.096;20.082;2023-05-14T08:50:56;5.70;;;2.60;;
67640;SDS011;54434;50.096;20.082;2023-05-14T08:53:35;4.10;;;2.70;;
67640;SDS011;54434;50.096;20.082;2023-05-14T08:56:13;4.60;;;2.50;;
67640;SDS011;54434;50.096;20.082;2023-05-14T08:58:51;4.40;;;2.80;;
67640;SDS011;54434;50.096;20.082;2023-05-14T09:01:28;6.90;;;2.40;;
67640;SDS011;54434;50.096;20.082;2023-05-14T09:04:06;4.10;;;2.10;;
67640;SDS011;54434;50.096;20.082;2023-05-14T09:06:43;4.50;;;2.60;;
67640;SDS011;54434;50.096;20.082;2023-05-14T09:09:22;4.20;;;2.00;;
67640;SDS011;54434;50.096;20.082;2023-05-14T09:12:01;8.20;;;2.30;;
67640;SDS011;54434;50.096;20.082;2023-05-14T09:14:39;5.10;;;2.20;;
67640;SDS011;54434;50.096;20.082;2023-05-14T09:17:17;4.70;;;2.10;;
67640;SDS011;54434;50.096;20.082;2023-05-14T09:19:53;3.90;;;2.20;;
67640;SDS011;54434;50.096;20.082;2023-05-14T09:22:33;3.40;;;2.20;;
67640;SDS011;54434;50.096;20.082;2023-05-14T09:25:11;4.20;;;2.20;;
67640;SDS011;54434;50.096;20.082;2023-05-14T09:27:48;3.70;;;2.00;;
67640;SDS011;54434;50.096;20.082;2023-05-14T09:30:30;34.60;;;18.00;;
67640;SDS011;54434;50.096;20.082;2023-05-14T09:33:09;3.50;;;2.20;;
67640;SDS011;54434;50.096;20.082;2023-05-14T09:35:47;3.60;;;2.10;;
67640;SDS011;54434;50.096;20.082;2023-05-14T09:38:28;4.20;;;2.40;;
67640;SDS011;54434;50.096;20.082;2023-05-14T09:41:05;3.50;;;2.30;;
67640;SDS011;54434;50.096;20.082;2023-05-14T09:43:42;4.90;;;2.00;;
67640;SDS011;54434;50.096;20.082;2023-05-14T09:46:18;3.00;;;2.10;;
67640;SDS011;54434;50.096;20.082;2023-05-14T09:48:57;5.90;;;2.30;;
67640;SDS011;54434;50.096;20.082;2023-05-14T09:51:34;3.90;;;2.10;;
67640;SDS011;54434;50.096;20.082;2023-05-14T09:54:12;7.80;;;2.50;;
67640;SDS011;54434;50.096;20.082;2023-05-14T09:56:49;5.20;;;2.20;;
67640;SDS011;54434;50.096;20.082;2023-05-14T09:59:27;5.70;;;2.40;;
67640;SDS011;54434;50.096;20.082;2023-05-14T10:02:05;4.40;;;2.40;;
67640;SDS011;54434;50.096;20.082;2023-05-14T10:04:51;4.50;;;2.30;;
67640;SDS011;54434;50.096;20.082;2023-05-14T10:07:37;3.50;;;2.00;;
67640;SDS011;54434;50.096;20.082;2023-05-14T10:10:20;4.70;;;2.10;;
67640;SDS011;54434;50.096;20.082;2023-05-14T10:19:49;6.30;;;2.30;;
67640;SDS011;54434;50.096;20.082;2023-05-14T10:22:32;5.00;;;2.20;;
67640;SDS011;54434;50.096;20.082;2023-05-14T10:25:10;6.90;;;4.10;;
67640;SDS011;54434;50.096;20.082;2023-05-14T10:27:47;3.50;;;2.20;;
67640;SDS011;54434;50.096;20.082;2023-05-14T10:30:24;5.90;;;2.60;;
67640;SDS011;54434;50.096;20.082;2023-05-14T10:33:13;4.10;;;2.40;;
67640;SDS011;54434;50.096;20.082;2023-05-14T10:35:59;5.60;;;2.50;;
67640;SDS011;54434;50.096;20.082;2023-05-14T10:38:37;2.80;;;1.80;;
67640;SDS011;54434;50.096;20.082;2023-05-14T10:41:14;6.00;;;2.60;;
67640;SDS011;54434;50.096;20.082;2023-05-14T10:43:51;6.90;;;3.40;;
67640;SDS011;54434;50.096;20.082;2023-05-14T10:46:31;4.50;;;2.60;;
67640;SDS011;54434;50.096;20.082;2023-05-14T10:49:08;5.60;;;2.40;;
67640;SDS011;54434;50.096;20.082;2023-05-14T10:51:48;4.40;;;2.50;;
67640;SDS011;54434;50.096;20.082;2023-05-14T10:54:30;5.30;;;2.40;;
67640;SDS011;54434;50.096;20.082;2023-05-14T10:57:14;3.90;;;2.20;;
67640;SDS011;54434;50.096;20.082;2023-05-14T10:59:53;4.10;;;2.30;;
67640;SDS011;54434;50.096;20.082;2023-05-14T11:02:33;4.40;;;2.40;;
67640;SDS011;54434;50.096;20.082;2023-05-14T11:05:13;4.00;;;2.40;;
67640;SDS011;54434;50.096;20.082;2023-05-14T11:07:50;4.40;;;2.30;;
67640;SDS011;54434;50.096;20.082;2023-05-14T11:10:29;3.80;;;2.20;;
67640;SDS011;54434;50.096;20.082;2023-05-14T11:13:06;3.50;;;2.10;;
67640;SDS011;54434;50.096;20.082;2023-05-14T11:15:44;4.10;;;2.50;;
67640;SDS011;54434;50.096;20.082;2023-05-14T11:18:30;5.10;;;2.40;;
67640;SDS011;54434;50.096;20.082;2023-05-14T11:21:10;7.30;;;2.30;;
67640;SDS011;54434;50.096;20.082;2023-05-14T11:23:49;4.80;;;2.30;;
67640;SDS011;54434;50.096;20.082;2023-05-14T11:26:27;3.30;;;2.00;;
67640;SDS011;54434;50.096;20.082;2023-05-14T11:29:05;4.10;;;2.20;;
67640;SDS011;54434;50.096;20.082;2023-05-14T11:31:41;3.60;;;2.20;;
67640;SDS011;54434;50.096;20.082;2023-05-14T11:34:18;3.40;;;2.10;;
67640;SDS011;54434;50.096;20.082;2023-05-14T11:36:55;4.40;;;2.00;;
67640;SDS011;54434;50.096;20.082;2023-05-14T11:39:31;3.50;;;2.10;;
67640;SDS011;54434;50.096;20.082;2023-05-14T11:42:12;4.00;;;2.10;;
67640;SDS011;54434;50.096;20.082;2023-05-14T11:44:51;6.20;;;2.70;;
67640;SDS011;54434;50.096;20.082;2023-05-14T11:47:30;4.30;;;2.20;;
67640;SDS011;54434;50.096;20.082;2023-05-14T11:50:08;4.80;;;2.30;;
67640;SDS011;54434;50.096;20.082;2023-05-14T11:52:45;6.40;;;3.40;;
67640;SDS011;54434;50.096;20.082;2023-05-14T11:55:23;4.80;;;2.40;;
67640;SDS011;54434;50.096;20.082;2023-05-14T11:58:00;4.00;;;2.40;;
67640;SDS011;54434;50.096;20.082;2023-05-14T12:00:37;4.20;;;2.10;;
67640;SDS011;54434;50.096;20.082;2023-05-14T12:03:15;4.50;;;2.10;;
67640;SDS011;54434;50.096;20.082;2023-05-14T12:06:01;2.70;;;1.80;;
67640;SDS011;54434;50.096;20.082;2023-05-14T12:08:42;4.20;;;2.20;;
67640;SDS011;54434;50.096;20.082;2023-05-14T12:11:22;3.90;;;2.10;;
67640;SDS011;54434;50.096;20.082;2023-05-14T12:14:00;4.20;;;2.10;;
67640;SDS011;54434;50.096;20.082;2023-05-14T12:16:48;4.80;;;1.90;;
67640;SDS011;54434;50.096;20.082;2023-05-14T12:19:26;5.50;;;2.30;;
67640;SDS011;54434;50.096;20.082;2023-05-14T12:22:06;4.70;;;2.40;;
67640;SDS011;54434;50.096;20.082;2023-05-14T12:24:53;3.70;;;2.00;;
67640;SDS011;54434;50.096;20.082;2023-05-14T12:27:35;5.50;;;2.10;;
67640;SDS011;54434;50.096;20.082;2023-05-14T12:30:14;7.70;;;2.60;;
67640;SDS011;54434;50.096;20.082;2023-05-14T12:33:00;3.40;;;2.00;;
67640;SDS011;54434;50.096;20.082;2023-05-14T12:35:36;3.70;;;2.00;;
67640;SDS011;54434;50.096;20.082;2023-05-14T12:38:13;2.70;;;1.80;;
67640;SDS011;54434;50.096;20.082;2023-05-14T12:40:49;2.30;;;1.70;;
67640;SDS011;54434;50.096;20.082;2023-05-14T12:43:26;3.40;;;1.90;;
67640;SDS011;54434;50.096;20.082;2023-05-14T12:46:04;6.30;;;2.10;;
67640;SDS011;54434;50.096;20.082;2023-05-14T12:48:41;2.90;;;1.90;;
67640;SDS011;54434;50.096;20.082;2023-05-14T12:51:17;4.20;;;2.10;;
67640;SDS011;54434;50.096;20.082;2023-05-14T12:53:54;3.50;;;2.00;;
67640;SDS011;54434;50.096;20.082;2023-05-14T12:56:30;3.80;;;2.20;;
67640;SDS011;54434;50.096;20.082;2023-05-14T12:59:07;4.10;;;1.90;;
67640;SDS011;54434;50.096;20.082;2023-05-14T13:01:43;4.40;;;2.10;;
67640;SDS011;54434;50.096;20.082;2023-05-14T13:04:20;2.90;;;1.70;;
67640;SDS011;54434;50.096;20.082;2023-05-14T13:06:58;4.10;;;2.10;;
67640;SDS011;54434;50.096;20.082;2023-05-14T13:09:34;4.40;;;2.00;;
67640;SDS011;54434;50.096;20.082;2023-05-14T13:12:11;5.00;;;1.80;;
67640;SDS011;54434;50.096;20.082;2023-05-14T13:14:48;3.80;;;1.80;;
67640;SDS011;54434;50.096;20.082;2023-05-14T13:17:24;4.90;;;1.80;;
67640;SDS011;54434;50.096;20.082;2023-05-14T13:20:01;5.10;;;1.60;;
67640;SDS011;54434;50.096;20.082;2023-05-14T13:22:38;4.20;;;2.10;;
67640;SDS011;54434;50.096;20.082;2023-05-14T13:25:15;3.00;;;1.80;;
67640;SDS011;54434;50.096;20.082;2023-05-14T13:27:52;3.50;;;2.00;;
67640;SDS011;54434;50.096;20.082;2023-05-14T13:30:29;4.70;;;2.00;;
67640;SDS011;54434;50.096;20.082;2023-05-14T13:33:06;4.80;;;1.90;;
67640;SDS011;54434;50.096;20.082;2023-05-14T13:35:43;3.20;;;1.60;;
67640;SDS011;54434;50.096;20.082;2023-05-14T13:38:20;2.10;;;1.70;;
67640;SDS011;54434;50.096;20.082;2023-05-14T13:40:56;3.30;;;1.80;;
67640;SDS011;54434;50.096;20.082;2023-05-14T13:43:36;5.00;;;1.90;;
67640;SDS011;54434;50.096;20.082;2023-05-14T13:46:12;4.10;;;2.10;;
67640;SDS011;54434;50.096;20.082;2023-05-14T13:48:51;2.70;;;1.80;;
67640;SDS011;54434;50.096;20.082;2023-05-14T13:51:28;4.00;;;2.70;;
67640;SDS011;54434;50.096;20.082;2023-05-14T13:54:05;4.70;;;1.90;;
67640;SDS011;54434;50.096;20.082;2023-05-14T13:56:41;6.50;;;2.00;;
67640;SDS011;54434;50.096;20.082;2023-05-14T13:59:18;5.00;;;1.90;;
67640;SDS011;54434;50.096;20.082;2023-05-14T14:01:56;3.40;;;1.60;;
67640;SDS011;54434;50.096;20.082;2023-05-14T14:04:34;3.50;;;1.90;;
67640;SDS011;54434;50.096;20.082;2023-05-14T14:07:13;3.10;;;1.60;;
67640;SDS011;54434;50.096;20.082;2023-05-14T14:09:51;3.70;;;1.80;;
67640;SDS011;54434;50.096;20.082;2023-05-14T14:12:28;5.60;;;2.70;;
67640;SDS011;54434;50.096;20.082;2023-05-14T14:15:06;6.70;;;2.00;;
67640;SDS011;54434;50.096;20.082;2023-05-14T14:17:44;3.00;;;1.90;;
67640;SDS011;54434;50.096;20.082;2023-05-14T14:20:22;4.20;;;2.10;;
67640;SDS011;54434;50.096;20.082;2023-05-14T14:22:59;4.00;;;2.00;;
67640;SDS011;54434;50.096;20.082;2023-05-14T14:25:36;4.20;;;2.10;;
67640;SDS011;54434;50.096;20.082;2023-05-14T14:28:13;3.90;;;1.90;;
67640;SDS011;54434;50.096;20.082;2023-05-14T14:30:50;5.00;;;2.10;;
67640;SDS011;54434;50.096;20.082;2023-05-14T14:33:27;3.70;;;1.90;;
67640;SDS011;54434;50.096;20.082;2023-05-14T14:36:05;3.20;;;2.00;;
67640;SDS011;54434;50.096;20.082;2023-05-14T14:38:42;3.90;;;2.00;;
67640;SDS011;54434;50.096;20.082;2023-05-14T14:41:23;2.50;;;1.80;;
67640;SDS011;54434;50.096;20.082;2023-05-14T14:44:05;5.90;;;2.20;;
67640;SDS011;54434;50.096;20.082;2023-05-14T14:46:43;5.20;;;2.10;;
67640;SDS011;54434;50.096;20.082;2023-05-14T14:49:21;3.60;;;2.20;;
67640;SDS011;54434;50.096;20.082;2023-05-14T14:52:00;9.40;;;2.00;;
67640;SDS011;54434;50.096;20.082;2023-05-14T14:54:37;6.70;;;2.10;;
67640;SDS011;54434;50.096;20.082;2023-05-14T14:57:15;4.00;;;1.90;;
67640;SDS011;54434;50.096;20.082;2023-05-14T14:59:53;4.00;;;2.10;;
67640;SDS011;54434;50.096;20.082;2023-05-14T15:02:30;4.20;;;2.20;;
67640;SDS011;54434;50.096;20.082;2023-05-14T15:05:09;3.10;;;2.00;;
67640;SDS011;54434;50.096;20.082;2023-05-14T15:07:46;3.80;;;2.20;;
67640;SDS011;54434;50.096;20.082;2023-05-14T15:10:29;3.10;;;2.10;;
67640;SDS011;54434;50.096;20.082;2023-05-14T15:13:11;4.90;;;1.90;;
67640;SDS011;54434;50.096;20.082;2023-05-14T15:15:51;3.80;;;2.00;;
67640;SDS011;54434;50.096;20.082;2023-05-14T15:18:28;3.10;;;2.10;;
67640;SDS011;54434;50.096;20.082;2023-05-14T15:21:07;9.40;;;4.30;;
67640;SDS011;54434;50.096;20.082;2023-05-14T15:23:44;3.10;;;2.00;;
67640;SDS011;54434;50.096;20.082;2023-05-14T15:26:21;3.90;;;2.10;;
67640;SDS011;54434;50.096;20.082;2023-05-14T15:28:59;5.70;;;2.00;;
67640;SDS011;54434;50.096;20.082;2023-05-14T15:31:37;8.20;;;3.50;;
67640;SDS011;54434;50.096;20.082;2023-05-14T15:34:14;6.40;;;2.50;;
67640;SDS011;54434;50.096;20.082;2023-05-14T15:36:51;4.10;;;2.30;;
67640;SDS011;54434;50.096;20.082;2023-05-14T15:39:30;4.10;;;2.20;;